Time;durP1;ratioP1;P1;durP2;ratioP2;P2;SDS_P1;SDS_P2;PMS_P1;PMS_P2;Temp;Humidity;BMP_temperature;BMP_pressure;BME280_temperature;BME280_humidity;BME280_pressure;Samples;Min_cycle;Max_cycle;Signal;HPM_P1;HPM_P2
2021/12/05 00:20:24;;;;;;;42.60;19.25;;;3.50;99.90;;;;;;5075904;28;20074;-69
2021/12/05 00:22:28;;;;;;;32.63;17.95;;;3.50;99.90;;;;;;5067081;28;20040;-69
2021/12/05 00:24:57;;;;;;;32.53;18.70;;;3.50;99.90;;;;;;5074083;28;20033;-69
2021/12/05 00:27:29;;;;;;;35.85;19.58;;;3.50;99.90;;;;;;5075413;28;20069;-69
2021/12/05 00:45:45;;;;;;;40.28;20.88;;;3.50;99.90;;;;;;5075081;28;20024;-69
2021/12/05 01:04:36;;;;;;;40.08;19.40;;;3.50;99.90;;;;;;5074719;28;20134;-69
2021/12/05 01:13:00;;;;;;;33.08;18.65;;;3.60;99.90;;;;;;5003016;28;20049;-69
2021/12/05 01:15:28;;;;;;;31.67;18.10;;;3.50;99.90;;;;;;5074097;28;20485;-69
2021/12/05 01:18:07;;;;;;;30.65;18.10;;;3.50;99.90;;;;;;5074438;28;20024;-69
2021/12/05 01:20:37;;;;;;;28.77;15.43;;;3.50;99.90;;;;;;5074411;28;20495;-69
2021/12/05 01:26:11;;;;;;;31.33;15.73;;;3.50;99.90;;;;;;5040439;28;20044;-69
2021/12/05 01:28:58;;;;;;;25.35;14.63;;;3.50;99.90;;;;;;5074575;28;20095;-69
2021/12/05 01:34:33;;;;;;;22.95;14.73;;;3.40;99.90;;;;;;5074208;28;20089;-69
2021/12/05 01:45:19;;;;;;;15.82;9.45;;;3.40;99.90;;;;;;5052657;28;20037;-69
2021/12/05 02:09:12;;;;;;;10.30;6.35;;;3.20;99.90;;;;;;5073571;28;20051;-69
2021/12/05 02:36:40;;;;;;;12.88;7.28;;;2.80;99.90;;;;;;5073631;28;20475;-69
2021/12/05 02:41:52;;;;;;;10.48;7.13;;;2.70;99.90;;;;;;5073425;28;20040;-70
2021/12/05 02:46:49;;;;;;;11.55;6.45;;;2.40;99.90;;;;;;5073045;28;20082;-70
2021/12/05 02:49:16;;;;;;;8.30;6.03;;;2.40;99.90;;;;;;5073342;28;20103;-70
2021/12/05 02:51:51;;;;;;;9.00;5.90;;;2.30;99.90;;;;;;5072994;28;20476;-70
2021/12/05 02:54:19;;;;;;;8.10;5.68;;;2.20;99.90;;;;;;5073301;28;20050;-70
2021/12/05 02:56:49;;;;;;;12.25;6.20;;;2.20;99.90;;;;;;5072990;28;20039;-70
2021/12/05 03:01:51;;;;;;;8.48;5.85;;;2.10;99.90;;;;;;5072957;28;20376;-70
2021/12/05 03:04:17;;;;;;;8.88;6.20;;;2.20;99.90;;;;;;5072903;28;20074;-70
2021/12/05 03:06:52;;;;;;;8.88;6.38;;;2.10;99.90;;;;;;5073307;28;20095;-69
2021/12/05 03:09:18;;;;;;;8.65;5.45;;;2.00;99.90;;;;;;5072907;28;20486;-69
2021/12/05 03:25:25;;;;;;;7.15;5.15;;;1.60;99.90;;;;;;5072858;28;20158;-69
2021/12/05 07:54:11;;;;;;;6.88;3.88;;;2.00;99.90;;;;;;5076275;28;20063;-69
2021/12/05 07:56:44;;;;;;;4.55;3.30;;;2.00;99.90;;;;;;5076203;28;20032;-69
2021/12/05 08:15:14;;;;;;;10.07;4.57;;;2.20;99.90;;;;;;5075725;28;20028;-69
2021/12/05 08:17:40;;;;;;;6.55;4.65;;;2.20;99.90;;;;;;5075693;28;20028;-69
2021/12/05 08:20:09;;;;;;;12.38;4.40;;;2.20;99.90;;;;;;5075524;28;20099;-69
2021/12/05 08:22:35;;;;;;;7.22;4.50;;;2.20;99.90;;;;;;5075490;28;20090;-69
2021/12/05 08:25:09;;;;;;;7.78;5.53;;;2.20;99.90;;;;;;5074060;28;20377;-69
2021/12/05 08:27:39;;;;;;;18.65;6.30;;;2.30;99.90;;;;;;5074268;28;20056;-69
2021/12/05 08:30:09;;;;;;;11.10;5.72;;;2.30;99.90;;;;;;5075618;28;20055;-69
2021/12/05 08:44:11;;;;;;;16.88;7.68;;;2.50;99.90;;;;;;5075798;28;20096;-69
2021/12/05 10:02:46;;;;;;;10.73;5.03;;;3.10;99.90;;;;;;5073911;28;20035;-69
2021/12/05 10:08:15;;;;;;;10.20;5.47;;;3.10;99.90;;;;;;5074055;28;20027;-68
2021/12/05 10:10:51;;;;;;;8.20;5.00;;;3.10;99.90;;;;;;5061133;28;20035;-70
2021/12/05 10:15:56;;;;;;;23.42;10.05;;;3.10;99.90;;;;;;5063704;28;20119;-70
2021/12/05 10:38:31;;;;;;;12.35;5.72;;;3.20;99.90;;;;;;5072684;28;20106;-69
2021/12/05 10:41:45;;;;;;;14.35;6.45;;;3.20;99.90;;;;;;5073251;28;20031;-69
2021/12/05 10:43:54;;;;;;;11.10;5.40;;;3.20;99.90;;;;;;5072674;28;20467;-69
2021/12/05 10:46:24;;;;;;;7.43;4.13;;;3.20;99.90;;;;;;5072871;28;20025;-69
2021/12/05 10:49:02;;;;;;;9.80;5.78;;;3.20;99.90;;;;;;5072671;28;20395;-69
2021/12/05 10:51:38;;;;;;;13.38;4.35;;;3.20;99.90;;;;;;5071241;28;20021;-69
2021/12/05 10:54:09;;;;;;;6.45;4.57;;;3.20;99.90;;;;;;5073041;28;20491;-68
2021/12/05 10:56:41;;;;;;;10.98;4.43;;;3.20;99.90;;;;;;5073088;28;20027;-68
2021/12/05 10:59:27;;;;;;;4.95;3.58;;;3.20;99.90;;;;;;5073174;28;20017;-69
2021/12/05 11:01:58;;;;;;;5.20;3.95;;;3.20;99.90;;;;;;5073181;28;20479;-69
2021/12/05 11:04:45;;;;;;;6.20;3.92;;;3.20;99.90;;;;;;5071595;28;20025;-68
2021/12/05 11:07:12;;;;;;;6.03;4.05;;;3.20;99.90;;;;;;5072467;28;20027;-69
2021/12/05 11:09:41;;;;;;;5.30;3.40;;;3.20;99.90;;;;;;5072785;28;20021;-69
2021/12/05 11:12:24;;;;;;;5.07;3.55;;;3.20;99.90;;;;;;5073172;28;20040;-69
2021/12/05 11:14:57;;;;;;;9.43;3.63;;;3.10;99.90;;;;;;5072855;28;20093;-69
2021/12/05 11:17:31;;;;;;;6.35;3.83;;;3.10;99.90;;;;;;5073177;28;20384;-69
2021/12/05 11:20:28;;;;;;;5.63;3.17;;;3.10;99.90;;;;;;5071036;28;20025;-69
2021/12/05 11:22:54;;;;;;;6.00;3.70;;;3.10;99.90;;;;;;5072903;28;20383;-69
2021/12/05 11:25:23;;;;;;;5.35;3.50;;;3.10;99.90;;;;;;5126244;23;20524;-72
2021/12/05 11:27:58;;;;;;;9.52;3.88;;;3.10;99.90;;;;;;5032280;28;20022;-72
2021/12/05 11:30:31;;;;;;;7.43;3.80;;;3.00;99.90;;;;;;5033060;28;20028;-72
2021/12/05 11:33:03;;;;;;;6.07;3.22;;;3.10;99.90;;;;;;5033081;28;20030;-73
2021/12/05 11:35:45;;;;;;;4.43;3.58;;;3.10;99.90;;;;;;5032656;28;20065;-73
2021/12/05 11:38:13;;;;;;;10.00;4.35;;;3.10;99.90;;;;;;5031762;28;20424;-73
2021/12/05 11:40:53;;;;;;;5.88;3.38;;;3.10;99.90;;;;;;5032190;28;20053;-72
2021/12/05 11:43:25;;;;;;;6.20;4.75;;;3.10;99.90;;;;;;5032695;28;20396;-72
2021/12/05 11:45:59;;;;;;;6.05;3.85;;;3.10;99.90;;;;;;5032592;28;20014;-72
2021/12/05 11:48:29;;;;;;;12.23;4.38;;;3.20;99.90;;;;;;5032926;28;20024;-73
2021/12/05 11:50:56;;;;;;;6.65;3.92;;;3.20;99.90;;;;;;5032580;28;20017;-73
2021/12/05 11:53:44;;;;;;;6.57;3.60;;;3.20;99.90;;;;;;5032035;28;20053;-73
2021/12/05 11:56:14;;;;;;;7.50;3.35;;;3.20;99.90;;;;;;5032827;28;20026;-73
2021/12/05 11:58:40;;;;;;;8.82;4.05;;;3.20;99.90;;;;;;5034140;28;20071;-73
2021/12/05 12:01:11;;;;;;;12.30;3.78;;;3.20;99.90;;;;;;5035559;28;20104;-73
2021/12/05 12:03:38;;;;;;;5.43;3.60;;;3.30;99.90;;;;;;5022976;28;20030;-73
2021/12/05 12:06:05;;;;;;;7.65;3.72;;;3.30;99.90;;;;;;5016186;28;20022;-73
2021/12/05 12:08:31;;;;;;;7.40;4.50;;;3.30;99.90;;;;;;5027059;28;20449;-73
2021/12/05 12:11:00;;;;;;;5.95;3.65;;;3.40;99.90;;;;;;5029379;28;20103;-72
2021/12/05 12:13:30;;;;;;;9.63;2.97;;;3.40;99.90;;;;;;5021106;28;20109;-72
2021/12/05 12:15:59;;;;;;;4.50;2.80;;;3.40;99.90;;;;;;5030720;28;20034;-72
2021/12/05 12:18:32;;;;;;;8.85;3.10;;;3.40;99.90;;;;;;5016008;28;20436;-73
2021/12/05 12:21:11;;;;;;;4.35;2.80;;;3.40;99.90;;;;;;5014733;28;20030;-72
2021/12/05 12:23:37;;;;;;;3.92;2.53;;;3.40;99.90;;;;;;5015431;28;20038;-72
2021/12/05 12:26:05;;;;;;;5.75;3.22;;;3.50;99.90;;;;;;5015784;28;20034;-72
2021/12/05 12:28:31;;;;;;;6.10;3.03;;;3.50;99.90;;;;;;5015973;28;20026;-73
2021/12/05 12:31:11;;;;;;;5.32;2.95;;;3.50;99.90;;;;;;5013966;28;20109;-72
2021/12/05 12:33:51;;;;;;;5.32;2.97;;;3.50;99.90;;;;;;5015975;28;20045;-72
2021/12/05 12:36:37;;;;;;;4.30;2.90;;;3.50;99.90;;;;;;5016062;28;20026;-72
2021/12/05 12:39:14;;;;;;;5.28;3.00;;;3.50;99.90;;;;;;5015885;28;20059;-72
2021/12/05 12:41:39;;;;;;;5.88;3.22;;;3.50;99.90;;;;;;5015009;28;20054;-72
2021/12/05 12:44:07;;;;;;;4.47;3.22;;;3.50;99.90;;;;;;5015512;28;20034;-72
2021/12/05 12:46:54;;;;;;;4.35;2.95;;;3.50;99.90;;;;;;5014177;28;20056;-72
2021/12/05 12:49:20;;;;;;;6.57;4.30;;;3.50;99.90;;;;;;5015783;28;20109;-73
2021/12/05 12:51:47;;;;;;;4.75;3.20;;;3.50;99.90;;;;;;5014153;28;20108;-72
2021/12/05 12:54:35;;;;;;;7.20;4.68;;;3.50;99.90;;;;;;5014750;28;20022;-72
2021/12/05 12:57:14;;;;;;;5.95;4.05;;;3.50;99.90;;;;;;5021968;28;20025;-72
2021/12/05 13:00:03;;;;;;;4.80;3.80;;;3.50;99.90;;;;;;5035301;28;20079;-72
2021/12/05 13:02:36;;;;;;;9.07;5.25;;;3.50;99.90;;;;;;5024558;28;20033;-72
2021/12/05 13:05:22;;;;;;;6.57;4.82;;;3.50;99.90;;;;;;5015065;28;20493;-72
2021/12/05 13:10:42;;;;;;;9.98;5.07;;;3.50;99.90;;;;;;5021492;28;20153;-72
2021/12/05 13:13:22;;;;;;;8.27;4.00;;;3.50;99.90;;;;;;5014451;28;20037;-72
2021/12/05 13:16:00;;;;;;;7.72;4.03;;;3.40;99.90;;;;;;5014907;28;20029;-73
2021/12/05 13:18:35;;;;;;;8.98;4.93;;;3.40;99.90;;;;;;5015421;28;20033;-72
2021/12/05 13:21:08;;;;;;;7.82;3.28;;;3.40;99.90;;;;;;5015101;28;20022;-73
2021/12/05 13:23:50;;;;;;;6.45;4.28;;;3.50;99.90;;;;;;5027123;28;20033;-72
2021/12/05 13:26:19;;;;;;;12.57;4.47;;;3.40;99.90;;;;;;5034815;28;20080;-72
2021/12/05 13:28:50;;;;;;;9.85;5.22;;;3.40;99.90;;;;;;5034406;28;20025;-72
2021/12/05 13:31:28;;;;;;;6.95;3.40;;;3.30;99.90;;;;;;5033957;28;20041;-73
2021/12/05 13:34:31;;;;;;;5.53;3.00;;;3.30;99.90;;;;;;5033740;28;20025;-73
2021/12/05 13:37:42;;;;;;;7.95;3.83;;;3.30;99.90;;;;;;5014808;28;20022;-73
2021/12/05 13:40:12;;;;;;;4.90;2.78;;;3.30;99.90;;;;;;5014563;28;20022;-73
2021/12/05 13:42:46;;;;;;;5.53;3.17;;;3.30;99.90;;;;;;5014382;28;20040;-73
2021/12/05 13:45:27;;;;;;;5.75;3.58;;;3.30;99.90;;;;;;5013799;28;20072;-73
2021/12/05 13:47:52;;;;;;;5.53;3.40;;;3.30;99.90;;;;;;5014343;28;20022;-73
2021/12/05 13:50:18;;;;;;;5.68;3.10;;;3.30;99.90;;;;;;5014351;28;20028;-72
2021/12/05 13:52:46;;;;;;;3.60;2.80;;;3.30;99.90;;;;;;5014251;28;20489;-72
2021/12/05 13:55:45;;;;;;;7.32;3.42;;;3.30;99.90;;;;;;5013538;28;20116;-73
2021/12/05 13:58:32;;;;;;;6.72;3.50;;;3.30;99.90;;;;;;5014327;28;20025;-73
2021/12/05 14:01:26;;;;;;;4.55;3.20;;;3.40;99.90;;;;;;5012776;28;20022;-73
2021/12/05 14:04:19;;;;;;;4.10;3.07;;;3.40;99.90;;;;;;5014066;28;20036;-73
2021/12/05 14:06:53;;;;;;;9.73;5.32;;;3.40;99.90;;;;;;5010435;28;20264;-73
2021/12/05 14:09:33;;;;;;;9.32;5.93;;;3.40;99.90;;;;;;5013468;28;20018;-73
2021/12/05 14:12:07;;;;;;;9.65;6.60;;;3.30;99.90;;;;;;5031019;28;20053;-73
2021/12/05 14:14:42;;;;;;;7.13;4.07;;;3.40;99.90;;;;;;5033131;28;20611;-73
2021/12/05 14:17:15;;;;;;;3.72;1.60;;;3.40;99.90;;;;;;5032229;28;20024;-73
2021/12/05 14:19:42;;;;;;;;;;;3.40;99.90;;;;;;5027059;28;20053;-73
2021/12/05 14:22:12;;;;;;;7.60;2.38;;;3.40;99.90;;;;;;5027991;28;19960;-72
2021/12/05 14:24:43;;;;;;;6.95;2.70;;;3.40;99.90;;;;;;5012364;28;20065;-72
2021/12/05 14:27:12;;;;;;;8.38;2.45;;;3.40;99.90;;;;;;5013758;28;20058;-73
2021/12/05 14:29:40;;;;;;;6.18;3.05;;;3.30;99.90;;;;;;5013938;28;20076;-72
2021/12/05 14:32:08;;;;;;;5.70;2.53;;;3.30;99.90;;;;;;5012233;28;20498;-72
2021/12/05 14:34:34;;;;;;;13.65;3.45;;;3.30;99.90;;;;;;5013551;28;20501;-72
2021/12/05 14:37:14;;;;;;;8.07;3.35;;;3.30;99.90;;;;;;5013853;28;20034;-72
2021/12/05 14:39:48;;;;;;;12.10;3.35;;;3.30;99.90;;;;;;5013866;28;20496;-72
2021/12/05 14:42:20;;;;;;;11.30;3.92;;;3.30;99.90;;;;;;5013385;28;20022;-72
2021/12/05 14:44:49;;;;;;;18.73;5.32;;;3.20;99.90;;;;;;5012979;28;20026;-73
2021/12/05 14:47:21;;;;;;;16.00;4.38;;;3.30;99.90;;;;;;5013469;28;20014;-73
2021/12/05 14:49:51;;;;;;;12.07;3.85;;;3.20;99.90;;;;;;5013304;28;20093;-72
2021/12/05 14:52:23;;;;;;;14.38;3.67;;;3.20;99.90;;;;;;5012861;28;20061;-72
2021/12/05 14:54:49;;;;;;;10.05;4.25;;;3.20;99.90;;;;;;5013619;28;20121;-72
2021/12/05 14:57:17;;;;;;;10.60;4.03;;;3.20;99.90;;;;;;5013340;28;20061;-72
2021/12/05 14:59:45;;;;;;;20.27;4.15;;;3.20;99.90;;;;;;5013335;28;20018;-72
2021/12/05 15:02:12;;;;;;;20.02;4.68;;;3.20;99.90;;;;;;5011428;28;20022;-71
2021/12/05 15:04:46;;;;;;;53.22;6.85;;;3.20;99.90;;;;;;5013169;28;20037;-72
2021/12/05 15:07:12;;;;;;;11.98;4.68;;;3.20;99.90;;;;;;5013339;28;20501;-73
2021/12/05 15:09:44;;;;;;;18.67;5.47;;;3.20;99.90;;;;;;5013303;28;20030;-72
2021/12/05 15:12:18;;;;;;;15.88;4.45;;;3.20;99.90;;;;;;5025406;28;20547;-71
2021/12/05 15:14:47;;;;;;;14.38;4.55;;;3.20;99.90;;;;;;5013433;28;20116;-72
2021/12/05 15:17:24;;;;;;;18.20;5.18;;;3.20;99.90;;;;;;5011937;28;20036;-72
2021/12/05 15:19:56;;;;;;;20.45;3.90;;;3.20;99.90;;;;;;5011956;28;20125;-72
2021/12/05 15:22:22;;;;;;;18.33;4.05;;;3.30;99.90;;;;;;5013103;28;20485;-72
2021/12/05 15:25:15;;;;;;;29.67;4.90;;;3.20;99.90;;;;;;5026403;28;20124;-72
2021/12/05 15:27:41;;;;;;;11.98;4.32;;;3.20;99.90;;;;;;5029824;28;20041;-72
2021/12/05 15:30:17;;;;;;;23.55;4.50;;;3.20;99.90;;;;;;5031564;28;20029;-72
2021/12/05 15:32:44;;;;;;;12.65;4.07;;;3.20;99.90;;;;;;5031501;28;20032;-72
2021/12/05 15:35:17;;;;;;;17.90;4.80;;;3.20;99.90;;;;;;5016674;28;20406;-72
2021/12/05 15:37:52;;;;;;;17.95;4.18;;;3.20;99.90;;;;;;5019851;28;20038;-72
2021/12/05 15:40:18;;;;;;;23.30;3.85;;;3.20;99.90;;;;;;5025492;28;20061;-77
2021/12/05 15:42:44;;;;;;;15.95;3.63;;;3.20;99.90;;;;;;5027969;28;20053;-76
2021/12/05 15:45:12;;;;;;;7.35;3.25;;;3.10;99.90;;;;;;5025927;28;20032;-74
2021/12/05 15:47:39;;;;;;;23.15;4.15;;;3.10;99.90;;;;;;5027349;28;20022;-74
2021/12/05 15:50:15;;;;;;;10.98;3.50;;;3.10;99.90;;;;;;5023371;28;20025;-75
2021/12/05 15:52:51;;;;;;;21.88;4.40;;;3.10;99.90;;;;;;5022063;28;20033;-75
2021/12/05 15:55:20;;;;;;;14.77;4.10;;;3.10;99.90;;;;;;5031091;28;20057;-75
2021/12/05 15:57:49;;;;;;;14.52;4.15;;;3.10;99.90;;;;;;5025314;28;20498;-75
2021/12/05 16:00:27;;;;;;;23.75;3.85;;;3.20;99.90;;;;;;5029705;28;20463;-75
2021/12/05 16:02:58;;;;;;;16.50;4.50;;;3.10;99.90;;;;;;5035770;28;20028;-75
2021/12/05 16:05:24;;;;;;;20.15;4.13;;;3.10;99.90;;;;;;5035970;28;20017;-75
2021/12/05 16:07:50;;;;;;;14.25;3.78;;;3.10;99.90;;;;;;5035886;28;20144;-75
2021/12/05 16:10:23;;;;;;;19.48;3.90;;;3.10;99.90;;;;;;5026684;28;20049;-75
2021/12/05 16:12:52;;;;;;;17.65;4.10;;;3.10;99.90;;;;;;5033785;28;20044;-72
2021/12/05 16:15:24;;;;;;;14.60;5.13;;;3.10;99.90;;;;;;5035724;28;20029;-72
2021/12/05 16:17:59;;;;;;;8.20;3.92;;;3.10;99.90;;;;;;5035893;28;20029;-72
2021/12/05 16:20:40;;;;;;;13.77;3.38;;;3.10;99.90;;;;;;5035754;28;20021;-72
2021/12/05 16:23:10;;;;;;;18.00;4.35;;;3.10;99.90;;;;;;5035601;28;20051;-72
2021/12/05 16:25:41;;;;;;;16.70;4.18;;;3.20;99.90;;;;;;5036023;28;20033;-72
2021/12/05 16:28:12;;;;;;;23.33;5.20;;;3.10;99.90;;;;;;5035038;28;20057;-72
2021/12/05 16:30:43;;;;;;;12.25;4.20;;;3.10;99.90;;;;;;5034264;28;20029;-72
2021/12/05 16:33:11;;;;;;;21.73;4.75;;;3.10;99.90;;;;;;5035651;28;20032;-72
2021/12/05 16:35:44;;;;;;;17.52;3.45;;;3.10;99.90;;;;;;5035435;28;20017;-72
2021/12/05 16:38:32;;;;;;;17.83;3.90;;;3.10;99.90;;;;;;5035123;28;20194;-72
2021/12/05 16:41:21;;;;;;;11.30;5.00;;;3.10;99.90;;;;;;5033554;28;20412;-72
2021/12/05 16:44:19;;;;;;;17.08;5.28;;;3.10;99.90;;;;;;5021702;28;20057;-72
2021/12/05 16:46:51;;;;;;;9.50;4.50;;;3.10;99.90;;;;;;5014387;28;20057;-72
2021/12/05 16:49:21;;;;;;;30.60;9.65;;;3.10;99.90;;;;;;5032141;28;20022;-72
2021/12/05 16:51:56;;;;;;;11.15;5.03;;;3.10;99.90;;;;;;5035204;28;20041;-72
2021/12/05 16:54:30;;;;;;;16.85;5.53;;;3.10;99.90;;;;;;5033811;28;20022;-72
2021/12/05 16:57:17;;;;;;;29.13;8.70;;;3.20;99.90;;;;;;5033530;28;20025;-72
2021/12/05 16:59:53;;;;;;;13.63;5.70;;;3.10;99.90;;;;;;5032755;28;20034;-72
2021/12/05 17:02:22;;;;;;;15.65;4.57;;;3.20;99.90;;;;;;5033323;28;20025;-72
2021/12/05 17:04:59;;;;;;;7.07;3.80;;;3.20;99.90;;;;;;5017577;28;20429;-72
2021/12/05 17:07:57;;;;;;;16.38;5.10;;;3.20;99.90;;;;;;5015110;28;20105;-72
2021/12/05 17:10:25;;;;;;;22.67;5.97;;;3.20;99.90;;;;;;5013842;28;20057;-72
2021/12/05 17:12:56;;;;;;;13.70;3.42;;;3.20;99.90;;;;;;5021072;28;20091;-72
2021/12/05 17:15:27;;;;;;;23.48;7.75;;;3.10;99.90;;;;;;5034723;28;20026;-72
2021/12/05 17:18:03;;;;;;;23.38;6.85;;;3.20;99.90;;;;;;5034688;28;20083;-72
2021/12/05 17:20:36;;;;;;;27.63;6.55;;;3.20;99.90;;;;;;5034933;28;20072;-72
2021/12/05 17:23:08;;;;;;;21.48;5.15;;;3.20;99.90;;;;;;5031955;28;20091;-73
2021/12/05 17:25:36;;;;;;;28.23;7.43;;;3.10;99.90;;;;;;5116756;23;20056;-68
2021/12/05 17:28:04;;;;;;;12.27;4.03;;;3.10;99.90;;;;;;5050688;28;20096;-68
2021/12/05 17:30:30;;;;;;;18.58;5.38;;;3.10;99.90;;;;;;5054292;28;20029;-68
2021/12/05 17:32:56;;;;;;;8.93;3.60;;;3.10;99.90;;;;;;5053135;28;20029;-68
2021/12/05 17:35:28;;;;;;;16.25;3.53;;;3.10;99.90;;;;;;5020966;28;20053;-68
2021/12/05 17:37:55;;;;;;;12.70;4.57;;;3.10;99.90;;;;;;5034860;28;20381;-68
2021/12/05 17:40:22;;;;;;;16.77;4.47;;;3.10;99.90;;;;;;5043443;28;20032;-68
2021/12/05 17:42:47;;;;;;;16.75;4.97;;;3.10;99.90;;;;;;5054008;28;20036;-68
2021/12/05 17:45:15;;;;;;;20.15;4.78;;;3.10;99.90;;;;;;5053390;28;20424;-68
2021/12/05 17:47:42;;;;;;;18.73;4.93;;;3.10;99.90;;;;;;5054614;28;20013;-68
2021/12/05 17:50:20;;;;;;;17.90;8.07;;;3.10;99.90;;;;;;5052654;28;20488;-68
2021/12/05 17:52:48;;;;;;;18.50;6.45;;;3.10;99.90;;;;;;5054072;28;20402;-68
2021/12/05 17:55:20;;;;;;;17.67;6.60;;;3.10;99.90;;;;;;5051021;28;20025;-68
2021/12/05 17:57:57;;;;;;;18.58;8.55;;;3.10;99.90;;;;;;5048970;28;20029;-68
2021/12/05 18:03:05;;;;;;;20.95;7.38;;;3.10;99.90;;;;;;5020182;28;20547;-69
2021/12/05 18:05:41;;;;;;;20.42;6.05;;;3.10;99.90;;;;;;5013322;28;20075;-69
2021/12/05 18:08:10;;;;;;;16.52;4.63;;;3.10;99.90;;;;;;5025550;28;20029;-68
2021/12/05 18:10:38;;;;;;;16.67;5.10;;;3.00;99.90;;;;;;5039639;28;20020;-68
2021/12/05 18:13:10;;;;;;;13.55;3.92;;;2.90;99.90;;;;;;5043720;28;20159;-68
2021/12/05 18:15:45;;;;;;;23.08;5.70;;;2.90;99.90;;;;;;5012634;28;20184;-68
2021/12/05 18:18:10;;;;;;;12.48;3.65;;;3.00;99.90;;;;;;5014134;28;20026;-68
2021/12/05 18:20:36;;;;;;;21.55;5.78;;;2.90;99.90;;;;;;5013269;28;20053;-68
2021/12/05 18:23:04;;;;;;;13.73;5.55;;;2.90;99.90;;;;;;5013962;28;20017;-68
2021/12/05 18:25:32;;;;;;;19.80;5.43;;;2.90;99.90;;;;;;5013696;28;20034;-68
2021/12/05 18:27:58;;;;;;;25.25;5.68;;;2.90;99.90;;;;;;5013708;28;20022;-68
2021/12/05 18:30:25;;;;;;;14.27;6.10;;;2.80;99.90;;;;;;5020500;28;20022;-72
2021/12/05 18:32:54;;;;;;;25.05;7.70;;;2.80;99.90;;;;;;5019439;28;20037;-71
2021/12/05 18:35:20;;;;;;;13.25;4.78;;;2.80;99.90;;;;;;5023237;28;20030;-72
2021/12/05 18:37:48;;;;;;;18.52;5.72;;;2.80;99.90;;;;;;5025123;28;20053;-72
2021/12/05 18:40:16;;;;;;;15.13;3.95;;;2.80;99.90;;;;;;5021026;28;20026;-72
2021/12/05 18:42:42;;;;;;;17.17;5.85;;;2.80;99.90;;;;;;5021939;28;20069;-73
2021/12/05 18:45:12;;;;;;;14.00;4.20;;;2.80;99.90;;;;;;5023895;28;20025;-72
2021/12/05 18:47:38;;;;;;;19.48;4.25;;;2.80;99.90;;;;;;5018736;28;20026;-72
2021/12/05 18:50:05;;;;;;;11.57;3.40;;;2.80;99.90;;;;;;5015929;28;20026;-72
2021/12/05 18:52:34;;;;;;;11.70;3.72;;;2.70;99.90;;;;;;5024142;28;20497;-72
2021/12/05 18:55:03;;;;;;;14.00;4.18;;;2.80;99.90;;;;;;5018872;28;20068;-72
2021/12/05 18:57:29;;;;;;;19.23;5.03;;;2.70;99.90;;;;;;5019951;28;20029;-72
2021/12/05 19:00:01;;;;;;;7.05;2.85;;;2.70;99.90;;;;;;5022164;28;20489;-71
2021/12/05 19:05:20;;;;;;;13.13;3.60;;;2.70;99.90;;;;;;5022848;28;20064;-73
2021/12/05 19:08:04;;;;;;;13.63;4.40;;;2.70;99.90;;;;;;5031001;28;20057;-73
2021/12/05 19:13:16;;;;;;;22.40;5.28;;;2.70;99.90;;;;;;5023289;28;20060;-72
2021/12/05 19:15:42;;;;;;;14.20;4.35;;;2.70;99.90;;;;;;5024476;28;20029;-73
2021/12/05 19:18:08;;;;;;;16.83;5.07;;;2.70;99.90;;;;;;5024092;28;20038;-69
2021/12/05 19:20:33;;;;;;;14.35;5.18;;;2.60;99.90;;;;;;5027421;28;20038;-70
2021/12/05 19:22:59;;;;;;;10.88;3.30;;;2.60;99.90;;;;;;5027233;28;20097;-70
2021/12/05 19:25:29;;;;;;;9.65;3.90;;;2.60;99.90;;;;;;5023213;28;20029;-70
2021/12/05 19:27:56;;;;;;;10.13;4.93;;;2.60;99.90;;;;;;5023752;28;20453;-70
2021/12/05 19:30:26;;;;;;;12.25;4.00;;;2.70;99.90;;;;;;5026885;28;20029;-70
2021/12/05 19:32:53;;;;;;;23.23;4.68;;;2.70;99.90;;;;;;5025147;28;20436;-69
2021/12/05 19:35:19;;;;;;;11.88;4.35;;;2.60;99.90;;;;;;5027289;28;20040;-70
2021/12/05 19:37:44;;;;;;;16.95;4.35;;;2.60;99.90;;;;;;5025148;28;20030;-69
2021/12/05 19:40:18;;;;;;;7.70;3.08;;;2.60;99.90;;;;;;5022789;28;20101;-69
2021/12/05 19:42:45;;;;;;;13.85;3.70;;;2.60;99.90;;;;;;5025089;28;20025;-70
2021/12/05 19:45:13;;;;;;;10.13;3.75;;;2.70;99.90;;;;;;5026593;28;20377;-70
2021/12/05 19:47:39;;;;;;;14.95;3.45;;;2.70;99.90;;;;;;5025978;28;20029;-70
2021/12/05 19:50:08;;;;;;;9.02;4.70;;;2.70;99.90;;;;;;5027205;28;20025;-69
2021/12/05 19:52:34;;;;;;;23.38;4.22;;;2.70;99.90;;;;;;5026374;28;20032;-69
2021/12/05 19:55:00;;;;;;;12.30;4.80;;;2.70;99.90;;;;;;5022499;28;20427;-69
2021/12/05 19:57:26;;;;;;;13.63;4.05;;;2.70;99.90;;;;;;5023628;28;20045;-69
2021/12/05 19:59:52;;;;;;;15.93;5.05;;;2.70;99.90;;;;;;5024441;28;20041;-70
2021/12/05 20:02:17;;;;;;;13.73;3.58;;;2.70;99.90;;;;;;5025944;28;20028;-69
2021/12/05 20:04:45;;;;;;;17.30;4.70;;;2.70;99.90;;;;;;5026562;28;20049;-69
2021/12/05 20:07:11;;;;;;;9.40;2.95;;;2.60;99.90;;;;;;5023089;28;20017;-69
2021/12/05 20:09:37;;;;;;;14.75;4.25;;;2.70;99.90;;;;;;5026675;28;20028;-71
2021/12/05 20:12:03;;;;;;;10.80;3.58;;;2.60;99.90;;;;;;5026844;28;20033;-69
2021/12/05 20:14:28;;;;;;;11.13;4.43;;;2.70;99.90;;;;;;5024421;28;20113;-70
2021/12/05 20:16:55;;;;;;;14.98;4.97;;;2.70;99.90;;;;;;5027225;28;20527;-69
2021/12/05 20:19:20;;;;;;;15.43;3.53;;;2.70;99.90;;;;;;5025954;28;20032;-70
2021/12/05 20:21:49;;;;;;;13.95;3.92;;;2.70;99.90;;;;;;5023945;28;20042;-70
2021/12/05 20:24:18;;;;;;;15.68;5.70;;;2.70;99.90;;;;;;5026861;28;20091;-70
2021/12/05 20:26:44;;;;;;;18.05;5.05;;;2.70;99.90;;;;;;5025311;28;20104;-70
2021/12/05 20:29:09;;;;;;;14.00;4.05;;;2.70;99.90;;;;;;5024802;28;20107;-70
2021/12/05 20:31:37;;;;;;;12.68;3.17;;;2.70;99.90;;;;;;5028632;28;20480;-70
2021/12/05 20:34:04;;;;;;;11.90;4.32;;;2.70;99.90;;;;;;5022130;28;20029;-70
2021/12/05 20:36:31;;;;;;;10.70;4.65;;;2.70;99.90;;;;;;5022391;28;20076;-70
2021/12/05 20:38:57;;;;;;;12.70;4.45;;;2.70;99.90;;;;;;5025342;28;20034;-70
2021/12/05 20:41:25;;;;;;;15.45;4.35;;;2.70;99.90;;;;;;5024420;28;20033;-70
2021/12/05 20:43:51;;;;;;;20.17;5.70;;;2.70;99.90;;;;;;5027119;28;20026;-70
2021/12/05 20:46:17;;;;;;;12.95;5.18;;;2.70;99.90;;;;;;5023105;28;20029;-70
2021/12/05 20:48:43;;;;;;;14.13;5.50;;;2.70;99.90;;;;;;5021384;28;20032;-69
2021/12/05 20:51:09;;;;;;;13.65;4.68;;;2.70;99.90;;;;;;5027653;28;20100;-69
2021/12/05 20:53:36;;;;;;;15.35;4.80;;;2.70;99.90;;;;;;5026056;28;20485;-69
2021/12/05 20:56:04;;;;;;;12.52;4.38;;;2.70;99.90;;;;;;5026434;28;20041;-69
2021/12/05 20:58:29;;;;;;;9.50;4.22;;;2.70;99.90;;;;;;5023696;28;20057;-70
2021/12/05 21:00:59;;;;;;;11.85;3.90;;;2.70;99.90;;;;;;5021337;28;20497;-70
2021/12/05 21:03:25;;;;;;;11.38;3.45;;;2.70;99.90;;;;;;5023386;28;20079;-70
2021/12/05 21:05:52;;;;;;;6.70;3.40;;;2.70;99.90;;;;;;5024158;28;20021;-69
2021/12/05 21:08:19;;;;;;;13.32;3.58;;;2.70;99.90;;;;;;5024918;28;20520;-69
2021/12/05 21:10:50;;;;;;;14.80;4.78;;;2.70;99.90;;;;;;5025434;28;20481;-69
2021/12/05 21:13:19;;;;;;;14.60;4.05;;;2.70;99.90;;;;;;5022099;28;20025;-69
2021/12/05 21:15:46;;;;;;;10.68;3.10;;;2.70;99.90;;;;;;5023056;28;20113;-69
2021/12/05 21:18:15;;;;;;;17.20;4.35;;;2.70;99.90;;;;;;5023509;28;20038;-69
2021/12/05 21:20:42;;;;;;;13.27;3.65;;;2.70;99.90;;;;;;5024169;28;20390;-69
2021/12/05 21:23:09;;;;;;;11.52;3.97;;;2.70;99.90;;;;;;5023773;28;20168;-70
2021/12/05 21:25:35;;;;;;;13.23;4.00;;;2.60;99.90;;;;;;5020518;28;20026;-72
2021/12/05 21:28:01;;;;;;;12.48;3.65;;;2.60;99.90;;;;;;5025815;28;20033;-73
2021/12/05 21:30:28;;;;;;;9.60;3.92;;;2.60;99.90;;;;;;5023378;28;20025;-72
2021/12/05 21:32:55;;;;;;;9.88;4.45;;;2.70;99.90;;;;;;5023401;28;20025;-72
2021/12/05 21:35:22;;;;;;;11.80;4.53;;;2.60;99.90;;;;;;5025879;28;20075;-73
2021/12/05 21:37:48;;;;;;;10.75;3.95;;;2.60;99.90;;;;;;5019994;28;20030;-72
2021/12/05 21:40:19;;;;;;;13.18;4.18;;;2.70;99.90;;;;;;5025670;28;20057;-73
2021/12/05 21:42:45;;;;;;;15.80;4.30;;;2.60;99.90;;;;;;5024818;28;20168;-74
2021/12/05 21:45:12;;;;;;;13.48;3.45;;;2.60;99.90;;;;;;5024927;28;20493;-72
2021/12/05 21:47:39;;;;;;;20.05;3.50;;;2.60;99.90;;;;;;5023962;28;20044;-74
2021/12/05 21:50:06;;;;;;;13.10;4.00;;;2.70;99.90;;;;;;5025474;28;20481;-72
2021/12/05 21:52:32;;;;;;;10.13;3.20;;;2.60;99.90;;;;;;5022989;28;20439;-69
2021/12/05 21:54:58;;;;;;;10.98;3.75;;;2.70;99.90;;;;;;5020582;28;20068;-69
2021/12/05 21:57:23;;;;;;;12.63;5.07;;;2.60;99.90;;;;;;5024094;28;20374;-74
2021/12/05 21:59:50;;;;;;;14.05;4.10;;;2.60;99.90;;;;;;5022624;28;20061;-74
2021/12/05 22:02:15;;;;;;;12.38;3.50;;;2.60;99.90;;;;;;5024903;28;20037;-74
2021/12/05 22:04:41;;;;;;;12.30;4.57;;;2.60;99.90;;;;;;5026418;28;20025;-69
2021/12/05 22:07:06;;;;;;;10.88;3.92;;;2.60;99.90;;;;;;5045962;28;20400;-69
2021/12/05 22:09:32;;;;;;;18.40;5.57;;;2.60;99.90;;;;;;5044730;28;20036;-69
2021/12/05 22:11:58;;;;;;;15.35;4.70;;;2.60;99.90;;;;;;5053023;28;20051;-68
2021/12/05 22:14:24;;;;;;;12.40;4.20;;;2.60;99.90;;;;;;5053465;28;20143;-68
2021/12/05 22:16:51;;;;;;;10.13;4.57;;;2.60;99.90;;;;;;5039934;28;20493;-69